Lima, New York
Current Conditions -  °F | °C
As of 9:26 AM on Monday 20 Oct 2014 (Local Time) from KROC Reporting Station
Broken Clouds Broken Clouds  
Wind Chill: 42°   Ceiling: 10000
Heat Index: 46°   Visibility: 10mi
Dew Point: 35°   Wind: 8mph
Humidity: 66%   Direction: 210°SSW
Pressure: 29.95"   Gusts: NA
Location:  42.9°N, 77.61°W
Report Text: KROC 201326Z 21007KT 10SM SCT030 BKN100 BKN200 08/02 A2995 RMK AO2 RAB1259E09 P0000 T00780017
Loading
Personal Weather Stations






























Interactive Weather Map
Tropical Storm Tracking
New forecast layout! Learn more

10-Day Weather Forecast

Advertisements
Track Severe Weather on mobile